sensor_id;sensor_type;location;lat;lon;timestamp;pressure;altitude;pressure_sealevel;temperature;humidity
55301;BME280;58302;51.446;-2.000;2022-08-21T00:01:07;100741.22;;;13.69;98.18
55301;BME280;58302;51.446;-2.000;2022-08-21T00:03:35;100735.50;;;13.60;98.68
55301;BME280;58302;51.446;-2.000;2022-08-21T00:06:02;100723.78;;;13.60;98.71
55301;BME280;58302;51.446;-2.000;2022-08-21T00:08:28;100720.78;;;13.51;98.87
55301;BME280;58302;51.446;-2.000;2022-08-21T00:10:54;100723.81;;;13.50;99.31
55301;BME280;58302;51.446;-2.000;2022-08-21T00:13:20;100718.66;;;13.43;99.43
55301;BME280;58302;51.446;-2.000;2022-08-21T00:15:47;100715.94;;;13.38;99.90
55301;BME280;58302;51.446;-2.000;2022-08-21T00:18:14;100709.13;;;13.35;99.97
55301;BME280;58302;51.446;-2.000;2022-08-21T00:20:42;100718.69;;;13.28;100.00
55301;BME280;58302;51.446;-2.000;2022-08-21T00:23:08;100709.41;;;13.24;100.00
55301;BME280;58302;51.446;-2.000;2022-08-21T00:25:35;100711.84;;;13.20;100.00
55301;BME280;58302;51.446;-2.000;2022-08-21T00:28:02;100715.69;;;13.19;100.00
55301;BME280;58302;51.446;-2.000;2022-08-21T00:30:30;100705.84;;;13.18;100.00
55301;BME280;58302;51.446;-2.000;2022-08-21T00:32:57;100702.88;;;13.09;100.00
55301;BME280;58302;51.446;-2.000;2022-08-21T00:35:27;100705.31;;;13.01;100.00
55301;BME280;58302;51.446;-2.000;2022-08-21T00:37:53;100712.44;;;12.97;100.00
55301;BME280;58302;51.446;-2.000;2022-08-21T00:40:23;100708.88;;;12.96;100.00
55301;BME280;58302;51.446;-2.000;2022-08-21T00:42:50;100709.72;;;12.97;100.00
55301;BME280;58302;51.446;-2.000;2022-08-21T00:45:16;100713.25;;;12.97;100.00
55301;BME280;58302;51.446;-2.000;2022-08-21T00:47:42;100714.59;;;13.00;100.00
55301;BME280;58302;51.446;-2.000;2022-08-21T00:50:09;100717.06;;;13.01;100.00
55301;BME280;58302;51.446;-2.000;2022-08-21T00:52:36;100706.41;;;13.05;100.00
55301;BME280;58302;51.446;-2.000;2022-08-21T00:55:05;100705.31;;;13.06;100.00
55301;BME280;58302;51.446;-2.000;2022-08-21T00:57:39;100705.03;;;13.07;100.00
55301;BME280;58302;51.446;-2.000;2022-08-21T01:00:11;100708.56;;;13.13;100.00
55301;BME280;58302;51.446;-2.000;2022-08-21T01:02:38;100706.94;;;13.12;100.00
55301;BME280;58302;51.446;-2.000;2022-08-21T01:05:04;100706.94;;;13.12;100.00
55301;BME280;58302;51.446;-2.000;2022-08-21T01:07:31;100709.41;;;13.13;100.00
55301;BME280;58302;51.446;-2.000;2022-08-21T01:09:57;100705.84;;;13.18;100.00
55301;BME280;58302;51.446;-2.000;2022-08-21T01:12:23;100712.69;;;13.15;100.00
55301;BME280;58302;51.446;-2.000;2022-08-21T01:14:50;100719.75;;;13.16;100.00
55301;BME280;58302;51.446;-2.000;2022-08-21T01:17:16;100726.84;;;13.12;100.00
55301;BME280;58302;51.446;-2.000;2022-08-21T01:19:43;100712.41;;;13.02;100.00
55301;BME280;58302;51.446;-2.000;2022-08-21T01:22:09;100721.69;;;12.96;100.00
55301;BME280;58302;51.446;-2.000;2022-08-21T01:24:35;100718.72;;;12.92;100.00
55301;BME280;58302;51.446;-2.000;2022-08-21T01:27:01;100717.06;;;12.91;100.00
55301;BME280;58302;51.446;-2.000;2022-08-21T01:32:06;100723.34;;;12.81;100.00
55301;BME280;58302;51.446;-2.000;2022-08-21T01:34:36;100728.53;;;12.73;100.00
55301;BME280;58302;51.446;-2.000;2022-08-21T01:37:02;100728.00;;;12.60;100.00
55301;BME280;58302;51.446;-2.000;2022-08-21T01:39:29;100723.88;;;12.63;100.00
55301;BME280;58302;51.446;-2.000;2022-08-21T01:41:55;100718.44;;;12.63;100.00
55301;BME280;58302;51.446;-2.000;2022-08-21T01:44:22;100717.91;;;12.66;100.00
55301;BME280;58302;51.446;-2.000;2022-08-21T01:46:49;100724.97;;;12.67;100.00
55301;BME280;58302;51.446;-2.000;2022-08-21T01:49:16;100713.53;;;12.65;100.00
55301;BME280;58302;51.446;-2.000;2022-08-21T01:51:42;100709.72;;;12.66;100.00
55301;BME280;58302;51.446;-2.000;2022-08-21T01:54:09;100708.91;;;12.65;100.00
55301;BME280;58302;51.446;-2.000;2022-08-21T01:56:38;100720.63;;;12.66;100.00
55301;BME280;58302;51.446;-2.000;2022-08-21T01:59:04;100711.06;;;12.63;100.00
55301;BME280;58302;51.446;-2.000;2022-08-21T02:01:31;100713.25;;;12.61;100.00
55301;BME280;58302;51.446;-2.000;2022-08-21T02:03:57;100705.34;;;12.50;100.00
55301;BME280;58302;51.446;-2.000;2022-08-21T02:06:25;100701.00;;;12.49;100.00
55301;BME280;58302;51.446;-2.000;2022-08-21T02:08:52;100701.53;;;12.46;100.00
55301;BME280;58302;51.446;-2.000;2022-08-21T02:11:18;100700.72;;;12.45;100.00
55301;BME280;58302;51.446;-2.000;2022-08-21T02:13:44;100697.69;;;12.42;100.00
55301;BME280;58302;51.446;-2.000;2022-08-21T02:16:13;100704.81;;;12.43;100.00
55301;BME280;58302;51.446;-2.000;2022-08-21T02:18:39;100693.63;;;12.39;100.00
55301;BME280;58302;51.446;-2.000;2022-08-21T02:21:05;100695.53;;;12.44;100.00
55301;BME280;58302;51.446;-2.000;2022-08-21T02:23:32;100694.44;;;12.45;100.00
55301;BME280;58302;51.446;-2.000;2022-08-21T02:25:59;100683.53;;;12.45;100.00
55301;BME280;58302;51.446;-2.000;2022-08-21T02:28:27;100687.06;;;12.40;100.00
55301;BME280;58302;51.446;-2.000;2022-08-21T02:30:54;100697.69;;;12.42;100.00
55301;BME280;58302;51.446;-2.000;2022-08-21T02:33:21;100688.16;;;12.39;100.00
55301;BME280;58302;51.446;-2.000;2022-08-21T02:35:48;100695.53;;;12.38;100.00
55301;BME280;58302;51.446;-2.000;2022-08-21T02:38:19;100692.81;;;12.38;100.00
55301;BME280;58302;51.446;-2.000;2022-08-21T02:40:48;100703.41;;;12.35;100.00
55301;BME280;58302;51.446;-2.000;2022-08-21T02:43:15;100706.16;;;12.35;100.00
55301;BME280;58302;51.446;-2.000;2022-08-21T02:45:43;100703.72;;;12.38;100.00
55301;BME280;58302;51.446;-2.000;2022-08-21T02:48:13;100703.72;;;12.44;100.00
55301;BME280;58302;51.446;-2.000;2022-08-21T02:50:46;100704.25;;;12.46;100.00
55301;BME280;58302;51.446;-2.000;2022-08-21T02:53:14;100706.72;;;12.47;100.00
55301;BME280;58302;51.446;-2.000;2022-08-21T02:55:44;100702.63;;;12.50;100.00
55301;BME280;58302;51.446;-2.000;2022-08-21T02:58:11;100704.25;;;12.56;100.00
55301;BME280;58302;51.446;-2.000;2022-08-21T03:00:39;100703.16;;;12.57;100.00
55301;BME280;58302;51.446;-2.000;2022-08-21T03:03:06;100707.81;;;12.56;100.00
55301;BME280;58302;51.446;-2.000;2022-08-21T03:05:33;100705.06;;;12.61;100.00
55301;BME280;58302;51.446;-2.000;2022-08-21T03:08:00;100708.63;;;12.67;100.00
55301;BME280;58302;51.446;-2.000;2022-08-21T03:10:30;100710.53;;;12.72;100.00
55301;BME280;58302;51.446;-2.000;2022-08-21T03:12:56;100704.00;;;12.78;100.00
55301;BME280;58302;51.446;-2.000;2022-08-21T03:15:29;100704.81;;;12.83;100.00
55301;BME280;58302;51.446;-2.000;2022-08-21T03:17:58;100698.53;;;12.88;100.00
55301;BME280;58302;51.446;-2.000;2022-08-21T03:20:26;100686.22;;;12.96;100.00
55301;BME280;58302;51.446;-2.000;2022-08-21T03:22:54;100695.50;;;13.05;100.00
55301;BME280;58302;51.446;-2.000;2022-08-21T03:25:22;100684.56;;;13.10;100.00
55301;BME280;58302;51.446;-2.000;2022-08-21T03:27:49;100688.94;;;13.11;100.00
55301;BME280;58302;51.446;-2.000;2022-08-21T03:30:18;100685.41;;;13.10;100.00
55301;BME280;58302;51.446;-2.000;2022-08-21T03:32:48;100686.22;;;13.11;100.00
55301;BME280;58302;51.446;-2.000;2022-08-21T03:35:14;100690.03;;;13.10;100.00
55301;BME280;58302;51.446;-2.000;2022-08-21T03:37:40;100684.06;;;13.08;100.00
55301;BME280;58302;51.446;-2.000;2022-08-21T03:40:08;100682.38;;;13.07;100.00
55301;BME280;58302;51.446;-2.000;2022-08-21T03:42:34;100685.13;;;13.07;100.00
55301;BME280;58302;51.446;-2.000;2022-08-21T03:45:01;100675.59;;;13.04;100.00
55301;BME280;58302;51.446;-2.000;2022-08-21T03:47:31;100678.03;;;13.06;100.00
55301;BME280;58302;51.446;-2.000;2022-08-21T03:49:58;100685.41;;;13.05;100.00
55301;BME280;58302;51.446;-2.000;2022-08-21T03:52:25;100684.59;;;13.05;100.00
55301;BME280;58302;51.446;-2.000;2022-08-21T03:54:51;100681.03;;;13.04;100.00
55301;BME280;58302;51.446;-2.000;2022-08-21T03:57:17;100687.84;;;13.07;100.00
55301;BME280;58302;51.446;-2.000;2022-08-21T03:59:43;100681.03;;;13.09;100.00
55301;BME280;58302;51.446;-2.000;2022-08-21T04:02:10;100681.03;;;13.14;100.00
55301;BME280;58302;51.446;-2.000;2022-08-21T04:04:39;100680.19;;;13.19;100.00
55301;BME280;58302;51.446;-2.000;2022-08-21T04:07:05;100681.28;;;13.18;100.00
55301;BME280;58302;51.446;-2.000;2022-08-21T04:09:31;100678.03;;;13.21;100.00
55301;BME280;58302;51.446;-2.000;2022-08-21T04:11:58;100675.84;;;13.23;100.00
55301;BME280;58302;51.446;-2.000;2022-08-21T04:14:25;100676.94;;;13.22;100.00
55301;BME280;58302;51.446;-2.000;2022-08-21T04:16:51;100675.56;;;13.19;100.00
55301;BME280;58302;51.446;-2.000;2022-08-21T04:19:17;100680.47;;;13.17;100.00
55301;BME280;58302;51.446;-2.000;2022-08-21T04:21:43;100681.84;;;13.10;100.00
55301;BME280;58302;51.446;-2.000;2022-08-21T04:24:09;100679.66;;;13.07;100.00
55301;BME280;58302;51.446;-2.000;2022-08-21T04:26:37;100675.31;;;13.01;100.00
55301;BME280;58302;51.446;-2.000;2022-08-21T04:29:04;100682.44;;;12.97;100.00
55301;BME280;58302;51.446;-2.000;2022-08-21T04:31:34;100675.31;;;12.96;100.00
55301;BME280;58302;51.446;-2.000;2022-08-21T04:34:00;100682.44;;;12.97;100.00
55301;BME280;58302;51.446;-2.000;2022-08-21T04:36:26;100681.06;;;12.99;100.00
55301;BME280;58302;51.446;-2.000;2022-08-21T04:38:54;100681.88;;;12.95;100.00
55301;BME280;58302;51.446;-2.000;2022-08-21T04:41:20;100687.59;;;12.93;100.00
55301;BME280;58302;51.446;-2.000;2022-08-21T04:43:46;100693.34;;;12.91;100.00
55301;BME280;58302;51.446;-2.000;2022-08-21T04:46:19;100707.00;;;12.91;100.00
55301;BME280;58302;51.446;-2.000;2022-08-21T04:48:45;100718.97;;;12.96;100.00
55301;BME280;58302;51.446;-2.000;2022-08-21T04:51:14;100710.53;;;12.97;100.00
55301;BME280;58302;51.446;-2.000;2022-08-21T04:53:45;100707.78;;;13.02;100.00
55301;BME280;58302;51.446;-2.000;2022-08-21T04:56:20;100706.94;;;13.02;100.00
55301;BME280;58302;51.446;-2.000;2022-08-21T04:58:48;100720.88;;;13.00;100.00
55301;BME280;58302;51.446;-2.000;2022-08-21T05:01:18;100730.16;;;12.99;100.00
55301;BME280;58302;51.446;-2.000;2022-08-21T05:03:45;100727.44;;;12.99;100.00
55301;BME280;58302;51.446;-2.000;2022-08-21T05:06:13;100739.72;;;12.97;100.00
55301;BME280;58302;51.446;-2.000;2022-08-21T05:08:41;100734.22;;;13.02;100.00
55301;BME280;58302;51.446;-2.000;2022-08-21T05:11:09;100735.34;;;13.01;100.00
55301;BME280;58302;51.446;-2.000;2022-08-21T05:13:35;100747.88;;;13.07;100.00
55301;BME280;58302;51.446;-2.000;2022-08-21T05:16:02;100735.31;;;13.11;100.00
55301;BME280;58302;51.446;-2.000;2022-08-21T05:18:28;100735.84;;;13.18;100.00
55301;BME280;58302;51.446;-2.000;2022-08-21T05:20:53;100743.25;;;13.23;100.00
55301;BME280;58302;51.446;-2.000;2022-08-21T05:23:19;100741.09;;;13.25;100.00
55301;BME280;58302;51.446;-2.000;2022-08-21T05:25:46;100744.63;;;13.25;100.00
55301;BME280;58302;51.446;-2.000;2022-08-21T05:28:12;100736.16;;;13.27;100.00
55301;BME280;58302;51.446;-2.000;2022-08-21T05:30:38;100728.78;;;13.32;100.00
55301;BME280;58302;51.446;-2.000;2022-08-21T05:33:05;100721.66;;;13.36;100.00
55301;BME280;58302;51.446;-2.000;2022-08-21T05:35:32;100720.00;;;13.40;100.00
55301;BME280;58302;51.446;-2.000;2022-08-21T05:37:59;100732.81;;;13.45;100.00
55301;BME280;58302;51.446;-2.000;2022-08-21T05:40:26;100723.81;;;13.50;100.00
55301;BME280;58302;51.446;-2.000;2022-08-21T05:42:54;100719.97;;;13.56;100.00
55301;BME280;58302;51.446;-2.000;2022-08-21T05:45:26;100716.09;;;13.67;100.00
55301;BME280;58302;51.446;-2.000;2022-08-21T05:47:52;100710.59;;;13.77;100.00
55301;BME280;58302;51.446;-2.000;2022-08-21T05:50:18;100712.47;;;13.87;99.62
55301;BME280;58302;51.446;-2.000;2022-08-21T05:52:44;100704.19;;;14.02;98.24
55301;BME280;58302;51.446;-2.000;2022-08-21T05:55:10;100703.88;;;14.09;97.30
55301;BME280;58302;51.446;-2.000;2022-08-21T05:57:36;100704.66;;;14.14;96.75
55301;BME280;58302;51.446;-2.000;2022-08-21T06:00:04;100706.25;;;14.20;95.96
55301;BME280;58302;51.446;-2.000;2022-08-21T06:02:30;100711.69;;;14.26;95.77
55301;BME280;58302;51.446;-2.000;2022-08-21T06:04:56;100719.06;;;14.30;95.59
55301;BME280;58302;51.446;-2.000;2022-08-21T06:07:22;100726.41;;;14.35;94.95
55301;BME280;58302;51.446;-2.000;2022-08-21T06:09:48;100729.38;;;14.38;94.76
55301;BME280;58302;51.446;-2.000;2022-08-21T06:12:14;100717.34;;;14.39;94.16
55301;BME280;58302;51.446;-2.000;2022-08-21T06:14:41;100717.31;;;14.44;93.74
55301;BME280;58302;51.446;-2.000;2022-08-21T06:17:10;100724.13;;;14.52;93.33
55301;BME280;58302;51.446;-2.000;2022-08-21T06:19:37;100718.88;;;14.56;92.90
55301;BME280;58302;51.446;-2.000;2022-08-21T06:22:04;100719.72;;;14.56;92.43
55301;BME280;58302;51.446;-2.000;2022-08-21T06:24:31;100718.97;;;14.51;92.40
55301;BME280;58302;51.446;-2.000;2022-08-21T06:26:57;100716.75;;;14.53;92.66
55301;BME280;58302;51.446;-2.000;2022-08-21T06:29:23;100714.53;;;14.55;92.48
55301;BME280;58302;51.446;-2.000;2022-08-21T06:31:50;100715.63;;;14.54;92.41
55301;BME280;58302;51.446;-2.000;2022-08-21T06:34:17;100708.53;;;14.53;92.78
55301;BME280;58302;51.446;-2.000;2022-08-21T06:36:44;100702.22;;;14.57;92.21
55301;BME280;58302;51.446;-2.000;2022-08-21T06:39:10;100696.44;;;14.59;92.12
55301;BME280;58302;51.446;-2.000;2022-08-21T06:41:36;100695.59;;;14.63;91.86
55301;BME280;58302;51.446;-2.000;2022-08-21T06:44:02;100694.78;;;14.63;91.55
55301;BME280;58302;51.446;-2.000;2022-08-21T06:46:31;100686.00;;;14.66;91.47
55301;BME280;58302;51.446;-2.000;2022-08-21T06:48:57;100682.09;;;14.72;91.48
55301;BME280;58302;51.446;-2.000;2022-08-21T06:51:24;100683.41;;;14.80;90.40
55301;BME280;58302;51.446;-2.000;2022-08-21T06:53:53;100681.75;;;14.84;90.18
55301;BME280;58302;51.446;-2.000;2022-08-21T06:56:19;100688.31;;;14.83;90.00
55301;BME280;58302;51.446;-2.000;2022-08-21T06:58:45;100687.44;;;14.87;90.00
55301;BME280;58302;51.446;-2.000;2022-08-21T07:01:11;100692.31;;;14.95;89.40
55301;BME280;58302;51.446;-2.000;2022-08-21T07:03:40;100686.78;;;15.00;89.27
55301;BME280;58302;51.446;-2.000;2022-08-21T07:06:08;100682.59;;;15.08;88.48
55301;BME280;58302;51.446;-2.000;2022-08-21T07:08:35;100681.44;;;15.14;88.46
55301;BME280;58302;51.446;-2.000;2022-08-21T07:11:04;100667.44;;;15.16;87.86
55301;BME280;58302;51.446;-2.000;2022-08-21T07:13:32;100679.69;;;15.23;87.36
55301;BME280;58302;51.446;-2.000;2022-08-21T07:15:58;100675.50;;;15.31;86.73
55301;BME280;58302;51.446;-2.000;2022-08-21T07:18:24;100682.03;;;15.35;86.25
55301;BME280;58302;51.446;-2.000;2022-08-21T07:20:50;100669.09;;;15.41;86.63
55301;BME280;58302;51.446;-2.000;2022-08-21T07:23:26;100670.84;;;15.55;85.41
55301;BME280;58302;51.446;-2.000;2022-08-21T07:25:54;100679.84;;;15.80;84.42
55301;BME280;58302;51.446;-2.000;2022-08-21T07:28:20;100672.53;;;16.13;84.05
55301;BME280;58302;51.446;-2.000;2022-08-21T07:30:50;100679.53;;;16.57;81.10
55301;BME280;58302;51.446;-2.000;2022-08-21T07:33:17;100678.38;;;17.23;78.74
55301;BME280;58302;51.446;-2.000;2022-08-21T07:35:43;100681.25;;;17.87;74.27
55301;BME280;58302;51.446;-2.000;2022-08-21T07:38:09;100684.78;;;18.24;72.45
55301;BME280;58302;51.446;-2.000;2022-08-21T07:40:35;100687.16;;;18.75;69.70
55301;BME280;58302;51.446;-2.000;2022-08-21T07:43:01;100686.41;;;19.14;67.95
55301;BME280;58302;51.446;-2.000;2022-08-21T07:45:28;100688.81;;;19.07;67.32
55301;BME280;58302;51.446;-2.000;2022-08-21T07:47:54;100684.78;;;19.13;67.22
55301;BME280;58302;51.446;-2.000;2022-08-21T07:50:20;100687.28;;;19.24;66.76
55301;BME280;58302;51.446;-2.000;2022-08-21T07:52:46;100694.47;;;19.42;65.64
55301;BME280;58302;51.446;-2.000;2022-08-21T07:55:15;100697.97;;;19.34;66.34
55301;BME280;58302;51.446;-2.000;2022-08-21T07:57:41;100705.56;;;19.19;66.19
55301;BME280;58302;51.446;-2.000;2022-08-21T08:00:12;100710.19;;;19.10;67.14
55301;BME280;58302;51.446;-2.000;2022-08-21T08:02:39;100721.19;;;19.02;67.43
55301;BME280;58302;51.446;-2.000;2022-08-21T08:05:08;100726.81;;;18.97;66.74
55301;BME280;58302;51.446;-2.000;2022-08-21T08:07:35;100731.13;;;18.89;67.33
55301;BME280;58302;51.446;-2.000;2022-08-21T08:10:02;100735.28;;;18.78;67.25
55301;BME280;58302;51.446;-2.000;2022-08-21T08:12:28;100737.16;;;18.32;69.69
55301;BME280;58302;51.446;-2.000;2022-08-21T08:14:57;100733.31;;;18.20;70.10
55301;BME280;58302;51.446;-2.000;2022-08-21T08:17:23;100744.34;;;18.06;71.40
55301;BME280;58302;51.446;-2.000;2022-08-21T08:19:50;100748.81;;;18.15;70.44
55301;BME280;58302;51.446;-2.000;2022-08-21T08:22:18;100752.41;;;18.02;71.36
55301;BME280;58302;51.446;-2.000;2022-08-21T08:24:50;100749.66;;;17.88;71.73
55301;BME280;58302;51.446;-2.000;2022-08-21T08:27:17;100746.09;;;17.74;71.98
55301;BME280;58302;51.446;-2.000;2022-08-21T08:29:44;100751.22;;;17.81;72.46
55301;BME280;58302;51.446;-2.000;2022-08-21T08:32:10;100759.13;;;17.96;71.96
55301;BME280;58302;51.446;-2.000;2022-08-21T08:34:37;100761.06;;;17.96;71.77
55301;BME280;58302;51.446;-2.000;2022-08-21T08:37:03;100766.06;;;17.94;71.49
55301;BME280;58302;51.446;-2.000;2022-08-21T08:39:30;100764.44;;;17.79;72.38
55301;BME280;58302;51.446;-2.000;2022-08-21T08:42:03;100758.94;;;17.79;72.64
55301;BME280;58302;51.446;-2.000;2022-08-21T08:44:30;100764.81;;;18.00;71.45
55301;BME280;58302;51.446;-2.000;2022-08-21T08:46:57;100763.16;;;18.26;70.39
55301;BME280;58302;51.446;-2.000;2022-08-21T08:52:05;100756.44;;;18.55;68.20
55301;BME280;58302;51.446;-2.000;2022-08-21T08:54:50;100744.59;;;18.32;69.10
55301;BME280;58302;51.446;-2.000;2022-08-21T08:57:20;100740.06;;;18.50;68.37
55301;BME280;58302;51.446;-2.000;2022-08-21T08:59:49;100744.53;;;18.82;67.48
55301;BME280;58302;51.446;-2.000;2022-08-21T09:02:16;100733.25;;;19.14;65.82
55301;BME280;58302;51.446;-2.000;2022-08-21T09:04:45;100737.44;;;19.43;64.53
55301;BME280;58302;51.446;-2.000;2022-08-21T09:07:33;100728.06;;;19.84;62.78
55301;BME280;58302;51.446;-2.000;2022-08-21T09:10:18;100731.16;;;19.91;62.56
55301;BME280;58302;51.446;-2.000;2022-08-21T09:21:23;100706.72;;;21.23;56.79
55301;BME280;58302;51.446;-2.000;2022-08-21T09:26:47;100711.09;;;21.71;54.33
55301;BME280;58302;51.446;-2.000;2022-08-21T09:29:17;100713.94;;;21.53;54.44
55301;BME280;58302;51.446;-2.000;2022-08-21T09:31:46;100709.63;;;21.35;55.12
55301;BME280;58302;51.446;-2.000;2022-08-21T09:34:12;100711.19;;;22.13;53.63
55301;BME280;58302;51.446;-2.000;2022-08-21T09:36:44;100724.38;;;22.91;50.11
55301;BME280;58302;51.446;-2.000;2022-08-21T09:39:13;100712.22;;;23.16;48.76
55301;BME280;58302;51.446;-2.000;2022-08-21T09:41:39;100706.47;;;23.46;48.15
55301;BME280;58302;51.446;-2.000;2022-08-21T09:44:07;100699.28;;;24.06;46.61
55301;BME280;58302;51.446;-2.000;2022-08-21T09:46:33;100696.28;;;24.51;45.62
55301;BME280;58302;51.446;-2.000;2022-08-21T09:49:02;100702.00;;;24.42;45.15
55301;BME280;58302;51.446;-2.000;2022-08-21T09:51:35;100697.97;;;24.15;44.59
55301;BME280;58302;51.446;-2.000;2022-08-21T09:56:39;100706.91;;;23.23;47.23
55301;BME280;58302;51.446;-2.000;2022-08-21T09:59:35;100708.78;;;23.31;47.50
55301;BME280;58302;51.446;-2.000;2022-08-21T10:02:29;100709.66;;;24.21;44.26
55301;BME280;58302;51.446;-2.000;2022-08-21T10:05:01;100711.03;;;24.39;43.49
55301;BME280;58302;51.446;-2.000;2022-08-21T10:07:30;100699.84;;;25.08;42.84
55301;BME280;58302;51.446;-2.000;2022-08-21T10:10:16;100702.53;;;25.52;40.66
55301;BME280;58302;51.446;-2.000;2022-08-21T10:15:49;100696.16;;;26.37;38.56
55301;BME280;58302;51.446;-2.000;2022-08-21T10:18:28;100699.25;;;26.51;37.53
55301;BME280;58302;51.446;-2.000;2022-08-21T10:21:15;100695.84;;;26.23;37.69
55301;BME280;58302;51.446;-2.000;2022-08-21T10:26:40;100692.22;;;27.00;36.35
55301;BME280;58302;51.446;-2.000;2022-08-21T10:35:14;100698.22;;;27.02;36.25
55301;BME280;58302;51.446;-2.000;2022-08-21T10:48:37;100698.84;;;26.92;36.19
55301;BME280;58302;51.446;-2.000;2022-08-21T10:51:40;100690.16;;;26.97;36.09
55301;BME280;58302;51.446;-2.000;2022-08-21T10:56:39;100686.00;;;27.79;34.32
55301;BME280;58302;51.446;-2.000;2022-08-21T11:04:41;100692.72;;;26.83;35.75
55301;BME280;58302;51.446;-2.000;2022-08-21T11:07:36;100691.75;;;27.17;36.20
55301;BME280;58302;51.446;-2.000;2022-08-21T11:10:14;100697.50;;;27.74;34.53
55301;BME280;58302;51.446;-2.000;2022-08-21T11:16:21;100690.31;;;27.73;34.08
55301;BME280;58302;51.446;-2.000;2022-08-21T11:21:42;100691.91;;;26.24;37.24
55301;BME280;58302;51.446;-2.000;2022-08-21T11:24:54;100689.72;;;27.37;34.79
55301;BME280;58302;51.446;-2.000;2022-08-21T11:29:59;100679.63;;;30.16;30.02
55301;BME280;58302;51.446;-2.000;2022-08-21T11:35:26;100684.19;;;29.25;31.37
55301;BME280;58302;51.446;-2.000;2022-08-21T11:40:57;100688.84;;;28.09;33.81
55301;BME280;58302;51.446;-2.000;2022-08-21T11:43:42;100686.41;;;27.54;34.44
55301;BME280;58302;51.446;-2.000;2022-08-21T11:49:29;100687.84;;;27.45;34.59
55301;BME280;58302;51.446;-2.000;2022-08-21T11:52:22;100682.97;;;27.15;34.84
55301;BME280;58302;51.446;-2.000;2022-08-21T11:58:02;100677.03;;;26.97;35.70
55301;BME280;58302;51.446;-2.000;2022-08-21T12:00:42;100684.31;;;27.48;34.44
55301;BME280;58302;51.446;-2.000;2022-08-21T12:03:28;100667.84;;;28.22;33.62
55301;BME280;58302;51.446;-2.000;2022-08-21T12:05:58;100672.16;;;28.46;32.63
55301;BME280;58302;51.446;-2.000;2022-08-21T12:08:34;100668.97;;;28.18;33.33
55301;BME280;58302;51.446;-2.000;2022-08-21T12:11:07;100672.53;;;27.35;34.84
55301;BME280;58302;51.446;-2.000;2022-08-21T12:13:38;100662.44;;;27.76;34.46
55301;BME280;58302;51.446;-2.000;2022-08-21T12:16:11;100673.78;;;28.84;32.02
55301;BME280;58302;51.446;-2.000;2022-08-21T12:18:37;100670.38;;;30.08;30.31
55301;BME280;58302;51.446;-2.000;2022-08-21T12:21:17;100670.97;;;30.50;29.26
55301;BME280;58302;51.446;-2.000;2022-08-21T12:29:14;100665.50;;;31.00;27.66
55301;BME280;58302;51.446;-2.000;2022-08-21T12:32:00;100653.22;;;30.21;29.01
55301;BME280;58302;51.446;-2.000;2022-08-21T12:34:42;100658.09;;;28.76;30.39
55301;BME280;58302;51.446;-2.000;2022-08-21T12:37:15;100663.19;;;27.73;32.88
55301;BME280;58302;51.446;-2.000;2022-08-21T12:39:47;100664.09;;;27.58;33.26
55301;BME280;58302;51.446;-2.000;2022-08-21T12:42:21;100665.69;;;27.55;32.95
55301;BME280;58302;51.446;-2.000;2022-08-21T12:44:53;100665.88;;;27.43;32.65
55301;BME280;58302;51.446;-2.000;2022-08-21T12:47:33;100664.69;;;27.44;33.77
55301;BME280;58302;51.446;-2.000;2022-08-21T12:50:09;100662.13;;;27.32;33.70
55301;BME280;58302;51.446;-2.000;2022-08-21T12:52:40;100666.91;;;27.31;34.15
55301;BME280;58302;51.446;-2.000;2022-08-21T12:55:15;100673.66;;;27.08;33.93
55301;BME280;58302;51.446;-2.000;2022-08-21T12:57:42;100662.34;;;27.00;33.98
55301;BME280;58302;51.446;-2.000;2022-08-21T13:00:11;100665.13;;;27.20;34.12
55301;BME280;58302;51.446;-2.000;2022-08-21T13:02:43;100654.34;;;27.45;33.75
55301;BME280;58302;51.446;-2.000;2022-08-21T13:05:15;100647.50;;;27.92;32.88
55301;BME280;58302;51.446;-2.000;2022-08-21T13:07:47;100648.16;;;28.45;32.07
55301;BME280;58302;51.446;-2.000;2022-08-21T13:10:18;100647.66;;;28.73;31.24
55301;BME280;58302;51.446;-2.000;2022-08-21T13:12:46;100642.50;;;29.64;30.53
55301;BME280;58302;51.446;-2.000;2022-08-21T13:15:14;100638.88;;;30.36;29.18
55301;BME280;58302;51.446;-2.000;2022-08-21T13:17:44;100645.41;;;30.80;27.59
55301;BME280;58302;51.446;-2.000;2022-08-21T13:20:24;100637.63;;;30.27;28.15
55301;BME280;58302;51.446;-2.000;2022-08-21T13:22:53;100642.44;;;29.53;29.62
55301;BME280;58302;51.446;-2.000;2022-08-21T13:25:21;100644.56;;;29.23;30.30
55301;BME280;58302;51.446;-2.000;2022-08-21T13:28:09;100639.88;;;28.52;31.04
55301;BME280;58302;51.446;-2.000;2022-08-21T13:30:40;100636.13;;;28.75;31.61
55301;BME280;58302;51.446;-2.000;2022-08-21T13:33:07;100634.13;;;29.68;30.32
55301;BME280;58302;51.446;-2.000;2022-08-21T13:35:46;100628.19;;;29.80;29.76
55301;BME280;58302;51.446;-2.000;2022-08-21T13:38:17;100638.47;;;29.58;30.47
55301;BME280;58302;51.446;-2.000;2022-08-21T13:40:51;100627.66;;;29.08;30.52
55301;BME280;58302;51.446;-2.000;2022-08-21T13:43:20;100622.09;;;29.16;30.90
55301;BME280;58302;51.446;-2.000;2022-08-21T13:45:50;100621.22;;;29.04;30.19
55301;BME280;58302;51.446;-2.000;2022-08-21T13:48:17;100622.94;;;29.20;30.64
55301;BME280;58302;51.446;-2.000;2022-08-21T13:50:44;100609.28;;;29.66;30.62
55301;BME280;58302;51.446;-2.000;2022-08-21T13:53:35;100608.94;;;29.75;29.53
55301;BME280;58302;51.446;-2.000;2022-08-21T13:56:03;100607.06;;;28.49;32.00
55301;BME280;58302;51.446;-2.000;2022-08-21T13:58:32;100619.91;;;28.20;32.11
55301;BME280;58302;51.446;-2.000;2022-08-21T14:01:00;100608.41;;;28.29;31.66
55301;BME280;58302;51.446;-2.000;2022-08-21T14:03:32;100603.13;;;27.87;31.93